createdAt,value
2019-06-26T00:03:41.943Z,26.05
2019-06-26T00:08:45.364Z,26.02
2019-06-26T00:13:48.809Z,25.95
2019-06-26T00:18:52.263Z,25.92
2019-06-26T00:23:55.676Z,25.81
2019-06-26T00:28:59.237Z,25.77
2019-06-26T00:34:02.665Z,25.68
2019-06-26T00:39:07.399Z,25.64
2019-06-26T00:44:10.946Z,25.59
2019-06-26T00:49:14.364Z,25.59
2019-06-26T00:54:17.791Z,25.57
2019-06-26T00:59:21.221Z,25.52
2019-06-26T01:04:26.283Z,25.49
2019-06-26T01:09:30.564Z,25.45
2019-06-26T01:14:34.087Z,25.48
2019-06-26T01:19:37.569Z,25.42
2019-06-26T01:24:41.060Z,25.37
2019-06-26T01:29:44.493Z,25.32
2019-06-26T01:34:47.981Z,25.23
2019-06-26T01:39:51.423Z,25.19
2019-06-26T01:44:55.116Z,25.19
2019-06-26T01:49:58.724Z,25.10
2019-06-26T01:55:02.446Z,25.07
2019-06-26T02:00:12.042Z,25.04
2019-06-26T02:05:15.548Z,24.91
2019-06-26T02:10:19.519Z,24.88
2019-06-26T02:15:23.032Z,24.94
2019-06-26T02:20:26.457Z,24.88
2019-06-26T02:25:29.870Z,24.78
2019-06-26T02:30:33.402Z,24.76
2019-06-26T02:35:36.852Z,24.74
2019-06-26T02:40:40.270Z,24.69
2019-06-26T02:45:43.686Z,24.68
2019-06-26T02:50:47.110Z,24.61
2019-06-26T02:55:50.608Z,24.62
2019-06-26T03:00:54.250Z,24.55
2019-06-26T03:05:57.810Z,24.53
2019-06-26T03:11:01.251Z,24.47
2019-06-26T03:16:05.428Z,24.48
2019-06-26T03:21:08.823Z,24.43
2019-06-26T03:26:12.256Z,24.39
2019-06-26T03:31:15.705Z,24.34
2019-06-26T03:36:19.119Z,24.36
2019-06-26T03:41:22.550Z,24.35
2019-06-26T03:46:26.005Z,24.35
2019-06-26T03:51:29.421Z,24.34
2019-06-26T03:56:32.850Z,24.29
2019-06-26T04:01:36.305Z,24.28
2019-06-26T04:06:39.752Z,24.25
2019-06-26T04:11:43.445Z,24.27
2019-06-26T04:16:47.041Z,24.29
2019-06-26T04:21:50.480Z,24.35
2019-06-26T04:26:53.903Z,24.40
2019-06-26T04:31:57.324Z,24.44
2019-06-26T04:37:00.761Z,24.46
2019-06-26T04:42:04.197Z,24.52
2019-06-26T04:47:07.611Z,24.60
2019-06-26T04:52:11.042Z,24.64
2019-06-26T04:57:14.470Z,24.70
2019-06-26T05:02:17.921Z,24.78
2019-06-26T05:07:21.362Z,24.86
2019-06-26T05:12:24.808Z,24.95
2019-06-26T05:17:29.042Z,25.07
2019-06-26T05:22:32.465Z,25.18
2019-06-26T05:27:35.976Z,25.29
2019-06-26T05:32:39.544Z,25.36
2019-06-26T05:37:42.990Z,25.46
2019-06-26T05:42:46.417Z,25.59
2019-06-26T05:47:49.902Z,25.68
2019-06-26T05:52:53.339Z,25.79
2019-06-26T05:57:56.918Z,25.90
2019-06-26T06:03:00.408Z,25.99
2019-06-26T06:08:03.835Z,26.05
2019-06-26T06:13:07.257Z,26.16
2019-06-26T06:18:11.618Z,26.30
2019-06-26T06:23:15.737Z,26.46
2019-06-26T06:28:19.198Z,26.54
2019-06-26T06:33:22.662Z,26.68
2019-06-26T06:38:26.138Z,26.79
2019-06-26T06:43:29.568Z,27.02
2019-06-26T06:48:33.034Z,27.20
2019-06-26T06:53:36.657Z,27.40
2019-06-26T06:58:40.280Z,27.78
2019-06-26T07:03:43.704Z,28.03
2019-06-26T07:08:47.215Z,28.46
2019-06-26T07:13:50.646Z,28.75
2019-06-26T07:18:54.160Z,29.00
2019-06-26T07:23:57.592Z,29.41
2019-06-26T07:29:01.320Z,29.53
2019-06-26T07:34:04.972Z,29.84
2019-06-26T07:39:08.600Z,30.15
2019-06-26T07:44:12.054Z,30.59
2019-06-26T07:49:15.557Z,30.75
2019-06-26T07:54:18.979Z,31.02
2019-06-26T07:59:22.501Z,31.52
2019-06-26T08:04:25.950Z,31.57
2019-06-26T08:09:29.400Z,31.97
2019-06-26T08:14:32.915Z,31.55
2019-06-26T08:19:36.401Z,32.29
2019-06-26T08:24:39.842Z,32.57
2019-06-26T08:29:43.282Z,33.12
2019-06-26T08:34:46.705Z,33.27
2019-06-26T08:39:50.158Z,33.77
2019-06-26T08:44:53.636Z,33.89
2019-06-26T08:49:57.318Z,34.23
2019-06-26T08:55:00.763Z,34.24
2019-06-26T09:00:07.600Z,34.59
2019-06-26T09:05:11.541Z,34.77
2019-06-26T09:10:15.313Z,34.92
2019-06-26T09:15:18.887Z,35.58
2019-06-26T09:20:27.898Z,35.44
2019-06-26T09:25:31.309Z,35.59
2019-06-26T09:30:35.554Z,36.06
2019-06-26T09:35:39.026Z,36.06
2019-06-26T09:40:42.465Z,36.44
2019-06-26T09:45:45.912Z,35.82
2019-06-26T09:50:49.338Z,36.20
2019-06-26T09:55:52.785Z,36.89
2019-06-26T10:00:56.218Z,36.91
2019-06-26T10:05:59.654Z,37.49
2019-06-26T10:11:03.070Z,37.85
2019-06-26T10:16:06.520Z,38.23
2019-06-26T10:21:10.018Z,38.61
2019-06-26T10:26:13.414Z,38.24
2019-06-26T10:31:18.526Z,38.96
2019-06-26T10:36:24.479Z,39.16
2019-06-26T10:41:27.322Z,39.16
2019-06-26T10:46:30.735Z,38.91
2019-06-26T10:51:34.210Z,38.46
2019-06-26T10:56:37.600Z,38.46
2019-06-26T11:01:41.017Z,38.54
2019-06-26T11:06:44.449Z,38.92
2019-06-26T11:11:47.857Z,38.74
2019-06-26T11:16:51.294Z,39.29
2019-06-26T11:21:54.721Z,39.01
2019-06-26T11:26:58.157Z,39.38
2019-06-26T11:32:01.662Z,38.86
2019-06-26T11:37:05.241Z,39.41
2019-06-26T11:42:08.675Z,39.02
2019-06-26T11:47:12.143Z,38.99
2019-06-26T11:52:15.589Z,39.42
2019-06-26T11:57:19.027Z,39.03
2019-06-26T12:02:22.462Z,38.86
2019-06-26T12:07:25.866Z,38.59
2019-06-26T12:12:29.277Z,37.96
2019-06-26T12:17:32.705Z,39.18
2019-06-26T12:22:36.124Z,39.03
2019-06-26T12:27:39.572Z,39.99
2019-06-26T12:33:01.158Z,39.66
2019-06-26T12:37:48.225Z,39.51
2019-06-26T12:42:55.485Z,40.45
2019-06-26T12:47:56.942Z,39.45
2019-06-26T12:53:00.414Z,39.73
2019-06-26T12:58:13.648Z,39.77
2019-06-26T13:03:09.094Z,39.46
2019-06-26T13:08:13.304Z,39.58
2019-06-26T13:13:16.682Z,38.75
2019-06-26T13:18:20.498Z,39.02
2019-06-26T13:23:23.958Z,38.95
2019-06-26T13:28:27.386Z,39.23
2019-06-26T13:33:30.820Z,37.91
2019-06-26T13:38:34.291Z,38.37
2019-06-26T13:43:37.735Z,39.24
2019-06-26T13:48:41.167Z,39.41
2019-06-26T13:53:44.574Z,38.75
2019-06-26T13:58:49.159Z,39.96
2019-06-26T14:03:52.580Z,40.45
2019-06-26T14:08:56.001Z,40.26
2019-06-26T14:13:59.416Z,39.48
2019-06-26T14:19:02.848Z,39.26
2019-06-26T14:24:06.293Z,38.89
2019-06-26T14:29:20.416Z,38.53
2019-06-26T14:34:14.861Z,38.67
2019-06-26T14:39:18.461Z,39.01
2019-06-26T14:44:21.904Z,38.96
2019-06-26T14:49:25.326Z,38.76
2019-06-26T14:54:28.714Z,38.72
2019-06-26T14:59:32.147Z,39.23
2019-06-26T15:04:35.577Z,39.25
2019-06-26T15:09:39.017Z,38.76
2019-06-26T15:14:42.600Z,38.69
2019-06-26T15:19:46.052Z,37.89
2019-06-26T15:24:49.849Z,38.61
2019-06-26T15:29:53.228Z,37.98
2019-06-26T15:34:56.665Z,37.99
2019-06-26T15:40:00.113Z,37.50
2019-06-26T15:45:04.272Z,36.28
2019-06-26T15:50:10.762Z,36.65
2019-06-26T15:55:13.841Z,36.26
2019-06-26T16:00:18.168Z,36.81
2019-06-26T16:05:21.574Z,36.35
2019-06-26T16:10:25.094Z,36.39
2019-06-26T16:15:28.839Z,36.27
2019-06-26T16:20:32.375Z,36.12
2019-06-26T16:25:35.790Z,35.70
2019-06-26T16:30:39.259Z,35.54
2019-06-26T16:35:42.887Z,35.72
2019-06-26T16:40:46.322Z,34.32
2019-06-26T16:45:49.733Z,34.27
2019-06-26T16:50:53.155Z,34.69
2019-06-26T16:55:56.611Z,34.36
2019-06-26T17:01:00.022Z,34.49
2019-06-26T17:06:03.460Z,33.72
2019-06-26T17:11:06.958Z,33.24
2019-06-26T17:16:10.548Z,32.80
2019-06-26T17:21:13.958Z,32.29
2019-06-26T17:26:17.389Z,31.90
2019-06-26T17:31:20.831Z,31.71
2019-06-26T17:36:24.259Z,31.27
2019-06-26T17:41:27.754Z,30.89
2019-06-26T17:46:31.170Z,30.99
2019-06-26T17:51:34.619Z,30.74
2019-06-26T17:56:38.136Z,30.75
2019-06-26T18:01:41.578Z,30.65
2019-06-26T18:06:44.992Z,30.40
2019-06-26T18:11:48.450Z,29.86
2019-06-26T18:16:51.891Z,29.94
2019-06-26T18:21:55.314Z,29.64
2019-06-26T18:26:58.755Z,29.25
2019-06-26T18:32:02.200Z,29.26
2019-06-26T18:37:05.761Z,29.24
2019-06-26T18:42:09.181Z,28.70
2019-06-26T18:47:12.691Z,28.80
2019-06-26T18:52:16.151Z,28.66
2019-06-26T18:57:19.673Z,28.69
2019-06-26T19:02:23.108Z,28.12
2019-06-26T19:07:26.594Z,28.04
2019-06-26T19:12:30.051Z,28.20
2019-06-26T19:17:33.496Z,28.20
2019-06-26T19:22:36.936Z,27.63
2019-06-26T19:27:40.378Z,27.35
2019-06-26T19:32:43.802Z,27.14
2019-06-26T19:37:47.247Z,27.07
2019-06-26T19:42:50.652Z,27.07
2019-06-26T19:47:54.074Z,27.05
2019-06-26T19:52:57.490Z,26.59
2019-06-26T19:58:00.931Z,26.47
2019-06-26T20:03:04.406Z,26.51
2019-06-26T20:08:07.827Z,26.40
2019-06-26T20:13:11.274Z,26.30
2019-06-26T20:18:15.518Z,26.19
2019-06-26T20:23:19.021Z,26.03
2019-06-26T20:28:22.440Z,26.10
2019-06-26T20:33:26.310Z,26.09
2019-06-26T20:38:29.741Z,25.91
2019-06-26T20:43:33.162Z,25.55
2019-06-26T20:48:36.581Z,25.59
2019-06-26T20:53:40.084Z,25.68
2019-06-26T20:58:43.524Z,25.35
2019-06-26T21:03:46.928Z,25.26
2019-06-26T21:08:50.363Z,25.23
2019-06-26T21:13:53.782Z,25.20
2019-06-26T21:18:57.223Z,24.98
2019-06-26T21:24:00.631Z,24.90
2019-06-26T21:29:04.124Z,24.77
2019-06-26T21:34:07.660Z,24.65
2019-06-26T21:39:11.084Z,24.04
2019-06-26T21:44:14.486Z,23.97
2019-06-26T21:49:17.907Z,23.97
2019-06-26T21:54:21.330Z,24.01
2019-06-26T21:59:24.875Z,23.84
2019-06-26T22:04:28.290Z,23.61
2019-06-26T22:09:31.786Z,23.51
2019-06-26T22:14:35.232Z,23.47
2019-06-26T22:19:38.745Z,23.43
2019-06-26T22:24:42.440Z,22.89
2019-06-26T22:29:45.878Z,22.95
2019-06-26T22:34:49.324Z,22.77
2019-06-26T22:39:52.757Z,22.83
2019-06-26T22:44:56.160Z,22.79
2019-06-26T22:49:59.605Z,22.47
2019-06-26T22:55:03.153Z,22.46
2019-06-26T23:00:08.688Z,22.49
2019-06-26T23:05:12.240Z,22.12
2019-06-26T23:10:16.980Z,22.16
2019-06-26T23:15:20.645Z,22.14
2019-06-26T23:20:24.024Z,21.96
2019-06-26T23:25:27.438Z,22.02
2019-06-26T23:30:30.868Z,21.59
2019-06-26T23:35:34.397Z,21.50
2019-06-26T23:40:37.834Z,21.43
2019-06-26T23:45:41.629Z,21.17
2019-06-26T23:50:45.075Z,21.31
2019-06-26T23:55:48.488Z,21.44
